createdAt,value
2019-04-19T00:01:18.826Z,12.10
2019-04-19T00:03:48.733Z,11.27
2019-04-19T00:06:31.013Z,12.13
2019-04-19T00:09:14.328Z,12.40
2019-04-19T00:11:33.478Z,10.57
2019-04-19T00:13:56.247Z,13.33
2019-04-19T00:16:25.729Z,11.73
2019-04-19T00:19:16.955Z,12.20
2019-04-19T00:21:41.733Z,9.33
2019-04-19T00:23:57.846Z,11.07
2019-04-19T00:26:25.918Z,12.33
2019-04-19T00:29:00.581Z,12.47
2019-04-19T00:31:37.560Z,13.50
2019-04-19T00:33:58.829Z,15.43
2019-04-19T00:36:25.821Z,12.63
2019-04-19T00:39:15.025Z,13.60
2019-04-19T00:41:54.570Z,9.17
2019-04-19T00:44:23.844Z,13.30
2019-04-19T00:46:55.349Z,14.07
2019-04-19T00:49:15.903Z,13.63
2019-04-19T00:51:49.111Z,14.00
2019-04-19T00:54:16.915Z,15.80
2019-04-19T00:56:48.071Z,15.37
2019-04-19T00:59:10.130Z,13.63
2019-04-19T01:01:37.532Z,14.60
2019-04-19T01:04:14.577Z,11.87
2019-04-19T01:06:43.887Z,12.90
2019-04-19T01:09:24.023Z,13.07
2019-04-19T01:11:55.579Z,12.80
2019-04-19T01:14:20.169Z,11.17
2019-04-19T01:16:54.904Z,14.13
2019-04-19T01:19:12.619Z,17.93
2019-04-19T01:21:39.143Z,15.70
2019-04-19T01:24:08.473Z,15.57
2019-04-19T01:26:43.665Z,20.23
2019-04-19T01:29:12.067Z,18.53
2019-04-19T01:31:39.649Z,13.53
2019-04-19T01:34:14.914Z,17.57
2019-04-19T01:36:43.574Z,24.57
2019-04-19T01:39:21.924Z,17.50
2019-04-19T01:41:52.437Z,15.77
2019-04-19T01:44:33.481Z,18.47
2019-04-19T01:47:15.658Z,16.93
2019-04-19T01:49:49.348Z,19.30
2019-04-19T01:52:30.454Z,19.70
2019-04-19T01:54:49.986Z,15.27
2019-04-19T01:57:09.249Z,23.87
2019-04-19T01:59:40.616Z,21.33
2019-04-19T02:02:12.613Z,23.93
2019-04-19T02:04:38.360Z,23.77
2019-04-19T02:07:12.637Z,17.83
2019-04-19T02:09:54.242Z,19.57
2019-04-19T02:12:22.178Z,18.73
2019-04-19T02:14:48.477Z,22.93
2019-04-19T02:17:12.886Z,21.07
2019-04-19T02:19:48.101Z,22.33
2019-04-19T02:22:17.356Z,23.83
2019-04-19T02:24:46.038Z,17.87
2019-04-19T02:27:13.414Z,22.13
2019-04-19T02:29:49.894Z,17.03
2019-04-19T02:32:42.717Z,19.10
2019-04-19T02:35:07.931Z,20.53
2019-04-19T02:37:53.094Z,26.40
2019-04-19T02:42:40.122Z,19.37
2019-04-19T02:50:11.407Z,22.80
2019-04-19T02:52:40.976Z,29.10
2019-04-19T02:55:10.797Z,24.13
2019-04-19T02:57:49.036Z,17.67
2019-04-19T03:05:20.062Z,20.23
2019-04-19T03:07:28.214Z,20.43
2019-04-19T03:09:58.050Z,25.80
2019-04-19T03:12:48.692Z,26.30
2019-04-19T03:15:09.776Z,26.27
2019-04-19T03:17:47.348Z,23.10
2019-04-19T03:20:16.746Z,21.07
2019-04-19T03:22:44.702Z,21.53
2019-04-19T03:25:17.202Z,20.40
2019-04-19T03:27:45.524Z,24.30
2019-04-19T03:30:12.569Z,20.83
2019-04-19T03:35:11.416Z,20.27
2019-04-19T03:37:51.264Z,24.77
2019-04-19T03:40:26.051Z,19.50
2019-04-19T03:42:58.510Z,19.27
2019-04-19T03:45:31.905Z,22.23
2019-04-19T03:48:07.607Z,22.97
2019-04-19T03:50:36.227Z,19.53
2019-04-19T03:53:00.976Z,25.20
2019-04-19T03:55:33.504Z,22.03
2019-04-19T03:57:55.110Z,21.90
2019-04-19T04:00:17.387Z,20.67
2019-04-19T04:02:48.129Z,18.77
2019-04-19T04:05:18.000Z,19.50
2019-04-19T04:07:57.851Z,22.33
2019-04-19T04:10:27.583Z,20.20
2019-04-19T04:13:15.809Z,19.10
2019-04-19T04:15:47.760Z,17.40
2019-04-19T04:18:06.767Z,22.60
2019-04-19T04:20:42.847Z,19.10
2019-04-19T04:23:10.624Z,24.30
2019-04-19T04:25:44.128Z,23.10
2019-04-19T04:28:20.297Z,19.00
2019-04-19T04:30:52.911Z,19.40
2019-04-19T04:33:21.590Z,17.03
2019-04-19T04:35:53.238Z,19.13
2019-04-19T04:38:18.039Z,16.63
2019-04-19T04:40:38.154Z,16.63
2019-04-19T04:43:20.327Z,21.57
2019-04-19T04:46:09.029Z,20.50
2019-04-19T04:48:32.481Z,25.10
2019-04-19T04:51:05.806Z,23.07
2019-04-19T04:53:21.351Z,19.80
2019-04-19T04:55:59.001Z,22.13
2019-04-19T04:58:28.798Z,22.37
2019-04-19T05:00:59.817Z,18.93
2019-04-19T05:03:42.929Z,19.20
2019-04-19T05:06:12.368Z,13.97
2019-04-19T05:08:39.774Z,14.80
2019-04-19T05:11:13.390Z,19.73
2019-04-19T05:13:46.924Z,19.53
2019-04-19T05:16:25.109Z,16.97
2019-04-19T05:18:43.593Z,19.67
2019-04-19T05:21:16.489Z,23.17
2019-04-19T05:23:47.874Z,16.40
2019-04-19T05:26:31.101Z,19.90
2019-04-19T05:28:43.707Z,18.67
2019-04-19T05:31:02.311Z,16.10
2019-04-19T05:33:42.537Z,20.27
2019-04-19T05:36:18.342Z,22.70
2019-04-19T05:39:04.873Z,18.73
2019-04-19T05:41:28.514Z,16.97
2019-04-19T05:44:27.028Z,16.77
2019-04-19T05:46:48.030Z,16.53
2019-04-19T05:49:07.754Z,18.90
2019-04-19T05:51:43.354Z,13.90
2019-04-19T05:53:56.804Z,19.13
2019-04-19T05:56:24.269Z,21.53
2019-04-19T05:59:03.360Z,14.87
2019-04-19T06:01:42.916Z,17.17
2019-04-19T06:04:11.838Z,20.20
2019-04-19T06:06:48.840Z,20.87
2019-04-19T06:08:54.379Z,16.93
2019-04-19T06:11:29.021Z,16.63
2019-04-19T06:14:12.564Z,16.50
2019-04-19T06:16:39.517Z,15.80
2019-04-19T06:19:20.487Z,17.57
2019-04-19T06:21:46.078Z,17.67
2019-04-19T06:24:24.833Z,18.80
2019-04-19T06:27:01.795Z,22.17
2019-04-19T06:29:15.041Z,16.53
2019-04-19T06:31:58.394Z,13.50
2019-04-19T06:34:23.004Z,18.43
2019-04-19T06:36:31.341Z,19.53
2019-04-19T06:39:01.410Z,18.83
2019-04-19T06:41:37.807Z,22.00
2019-04-19T06:44:10.741Z,19.03
2019-04-19T06:46:45.545Z,19.13
2019-04-19T06:49:07.463Z,20.80
2019-04-19T06:51:39.061Z,16.87
2019-04-19T06:54:06.008Z,24.00
2019-04-19T06:56:36.976Z,15.17
2019-04-19T06:59:10.538Z,17.07
2019-04-19T07:01:39.406Z,15.90
2019-04-19T07:04:04.108Z,15.13
2019-04-19T07:06:48.163Z,20.07
2019-04-19T07:09:35.598Z,19.20
2019-04-19T07:11:56.470Z,22.30
2019-04-19T07:14:12.609Z,17.43
2019-04-19T07:16:55.787Z,20.93
2019-04-19T07:19:24.468Z,12.80
2019-04-19T07:21:57.784Z,19.57
2019-04-19T07:24:33.738Z,22.03
2019-04-19T07:26:59.407Z,18.87
2019-04-19T07:29:08.435Z,16.53
2019-04-19T07:31:38.704Z,20.77
2019-04-19T07:34:17.368Z,16.87
2019-04-19T07:36:57.356Z,18.30
2019-04-19T07:39:25.593Z,11.27
2019-04-19T07:41:58.453Z,18.23
2019-04-19T07:44:30.671Z,16.30
2019-04-19T07:47:07.881Z,20.07
2019-04-19T07:49:25.326Z,17.00
2019-04-19T07:52:02.411Z,18.10
2019-04-19T07:54:29.911Z,15.27
2019-04-19T07:57:32.594Z,22.30
2019-04-19T07:59:45.348Z,13.83
2019-04-19T08:05:00.511Z,14.20
2019-04-19T08:07:31.716Z,18.03
2019-04-19T08:12:19.012Z,16.70
2019-04-19T08:29:40.783Z,23.93
2019-04-19T08:32:00.806Z,16.47
2019-04-19T08:34:31.581Z,11.73
2019-04-19T08:37:04.701Z,15.23
2019-04-19T08:39:46.111Z,19.50
2019-04-19T08:42:20.530Z,22.67
2019-04-19T08:44:45.109Z,15.73
2019-04-19T08:47:23.906Z,16.00
2019-04-19T08:49:53.685Z,10.87
2019-04-19T08:52:29.158Z,13.73
2019-04-19T08:55:17.397Z,17.17
2019-04-19T08:57:28.911Z,16.20
2019-04-19T09:00:19.010Z,15.80
2019-04-19T09:02:43.106Z,15.40
2019-04-19T09:05:15.026Z,15.93
2019-04-19T09:07:51.159Z,16.33
2019-04-19T09:10:30.587Z,17.40
2019-04-19T09:12:56.175Z,13.80
2019-04-19T09:15:18.243Z,20.90
2019-04-19T09:18:12.776Z,14.53
2019-04-19T09:20:23.381Z,10.60
2019-04-19T09:23:00.854Z,18.77
2019-04-19T09:25:32.751Z,17.40
2019-04-19T09:28:19.591Z,15.90
2019-04-19T09:30:51.338Z,12.00
2019-04-19T09:33:09.949Z,13.83
2019-04-19T09:35:40.008Z,11.90
2019-04-19T09:38:15.047Z,14.80
2019-04-19T09:40:41.421Z,14.00
2019-04-19T09:43:19.950Z,12.37
2019-04-19T09:45:34.317Z,12.07
2019-04-19T09:48:03.278Z,11.27
2019-04-19T09:50:49.217Z,11.90
2019-04-19T09:53:31.093Z,13.03
2019-04-19T09:55:57.965Z,19.83
2019-04-19T09:58:20.873Z,18.20
2019-04-19T10:00:34.921Z,16.00
2019-04-19T10:03:11.453Z,20.13
2019-04-19T10:05:34.881Z,10.67
2019-04-19T10:08:03.998Z,13.80
2019-04-19T10:10:33.321Z,9.93
2019-04-19T10:13:03.507Z,12.47
2019-04-19T10:15:34.280Z,9.60
2019-04-19T10:18:02.954Z,14.10
2019-04-19T10:20:33.693Z,15.00
2019-04-19T10:23:03.602Z,11.40
2019-04-19T10:25:35.314Z,11.93
2019-04-19T10:28:05.495Z,10.43
2019-04-19T10:30:38.800Z,10.80
2019-04-19T10:33:09.236Z,11.80
2019-04-19T10:35:37.914Z,9.10
2019-04-19T10:38:07.314Z,9.73
2019-04-19T10:40:36.105Z,11.20
2019-04-19T10:43:05.150Z,12.77
2019-04-19T10:45:34.218Z,10.37
2019-04-19T10:48:04.021Z,12.10
2019-04-19T10:50:41.908Z,30.77
2019-04-19T10:53:06.182Z,10.43
2019-04-19T10:55:40.312Z,12.80
2019-04-19T10:58:09.492Z,27.93
2019-04-19T11:00:38.233Z,15.50
2019-04-19T11:03:08.768Z,10.10
2019-04-19T11:05:38.938Z,9.00
2019-04-19T11:08:07.702Z,12.80
2019-04-19T11:10:36.317Z,11.97
2019-04-19T11:13:05.208Z,7.97
2019-04-19T11:15:34.150Z,12.30
2019-04-19T11:18:03.615Z,12.67
2019-04-19T11:20:40.278Z,15.90
2019-04-19T11:23:03.832Z,11.60
2019-04-19T11:25:33.389Z,11.23
2019-04-19T11:28:02.987Z,10.47
2019-04-19T11:30:49.316Z,8.70
2019-04-19T11:33:23.269Z,10.13
2019-04-19T11:35:57.516Z,8.60
2019-04-19T11:38:27.125Z,14.20
2019-04-19T11:40:55.841Z,10.17
2019-04-19T11:43:25.272Z,11.20
2019-04-19T11:45:54.003Z,11.13
2019-04-19T11:48:22.789Z,15.80
2019-04-19T11:50:53.990Z,8.57
2019-04-19T11:53:24.744Z,8.37
2019-04-19T11:56:00.829Z,11.90
2019-04-19T11:58:32.514Z,9.83
2019-04-19T12:01:14.193Z,10.90
2019-04-19T12:03:43.737Z,11.53
2019-04-19T12:06:12.516Z,16.20
2019-04-19T12:08:42.770Z,12.17
2019-04-19T12:11:12.650Z,9.57
2019-04-19T12:13:41.350Z,8.80
2019-04-19T12:16:10.834Z,10.60
2019-04-19T12:18:41.726Z,10.73
2019-04-19T12:21:11.268Z,8.70
2019-04-19T12:23:41.115Z,15.20
2019-04-19T12:26:09.853Z,12.47
2019-04-19T12:28:39.672Z,8.67
2019-04-19T12:31:09.439Z,8.50
2019-04-19T12:33:39.516Z,8.60
2019-04-19T12:36:08.706Z,13.07
2019-04-19T12:38:37.888Z,10.70
2019-04-19T12:41:07.893Z,9.00
2019-04-19T12:43:38.033Z,7.90
2019-04-19T12:46:07.356Z,10.87
2019-04-19T12:48:37.578Z,16.10
2019-04-19T12:51:06.211Z,9.60
2019-04-19T12:53:34.945Z,11.70
2019-04-19T12:56:04.148Z,10.50
2019-04-19T12:58:32.847Z,11.50
2019-04-19T13:01:03.860Z,8.43
2019-04-19T13:03:54.621Z,10.60
2019-04-19T13:06:35.630Z,9.30
2019-04-19T13:09:05.809Z,11.43
2019-04-19T13:11:34.876Z,11.63
2019-04-19T13:14:03.819Z,9.70
2019-04-19T13:16:32.547Z,8.50
2019-04-19T13:19:01.213Z,10.20
2019-04-19T13:21:29.931Z,6.90
2019-04-19T13:23:58.609Z,13.20
2019-04-19T13:26:27.617Z,11.07
2019-04-19T13:28:57.668Z,10.40
2019-04-19T13:31:27.127Z,9.13
2019-04-19T13:33:55.849Z,14.10
2019-04-19T13:36:26.951Z,9.40
2019-04-19T13:39:17.247Z,12.77
2019-04-19T13:41:53.163Z,12.13
2019-04-19T13:44:22.932Z,9.90
2019-04-19T13:46:54.923Z,11.43
2019-04-19T13:49:24.434Z,14.30
2019-04-19T13:51:53.065Z,10.07
2019-04-19T13:54:24.842Z,16.67
2019-04-19T13:56:53.560Z,9.10
2019-04-19T13:59:37.703Z,10.90
2019-04-19T14:01:54.503Z,13.27
2019-04-19T14:04:23.686Z,10.57
2019-04-19T14:06:56.180Z,9.30
2019-04-19T14:09:25.171Z,12.97
2019-04-19T14:11:53.801Z,9.00
2019-04-19T14:14:25.775Z,11.57
2019-04-19T14:16:55.723Z,10.27
2019-04-19T14:19:24.934Z,13.73
2019-04-19T14:21:53.535Z,14.83
2019-04-19T14:24:25.019Z,10.20
2019-04-19T14:26:56.361Z,10.30
2019-04-19T14:29:25.350Z,11.67
2019-04-19T14:31:54.602Z,10.87
2019-04-19T14:34:23.157Z,10.57
2019-04-19T14:36:51.997Z,12.73
2019-04-19T14:39:20.665Z,13.30
2019-04-19T14:41:50.114Z,9.07
2019-04-19T14:44:19.664Z,10.00
2019-04-19T14:46:48.303Z,8.47
2019-04-19T14:49:16.872Z,15.90
2019-04-19T14:51:45.859Z,12.13
2019-04-19T14:54:14.816Z,9.43
2019-04-19T14:56:43.526Z,7.07
2019-04-19T14:59:12.187Z,9.67
2019-04-19T15:01:58.967Z,11.40
2019-04-19T15:04:29.151Z,9.10
2019-04-19T15:06:57.872Z,10.63
2019-04-19T15:09:27.577Z,8.23
2019-04-19T15:11:56.478Z,9.23
2019-04-19T15:14:26.152Z,14.60
2019-04-19T15:16:54.838Z,6.27
2019-04-19T15:19:23.469Z,7.30
2019-04-19T15:21:54.360Z,10.00
2019-04-19T15:24:23.047Z,11.00
2019-04-19T15:26:54.685Z,8.67
2019-04-19T15:29:23.447Z,20.93
2019-04-19T15:31:54.485Z,10.70
2019-04-19T15:34:23.129Z,9.50
2019-04-19T15:36:51.756Z,12.10
2019-04-19T15:39:21.808Z,8.80
2019-04-19T15:41:50.680Z,8.67
2019-04-19T15:44:20.904Z,8.97
2019-04-19T15:46:51.808Z,18.43
2019-04-19T15:49:21.738Z,12.20
2019-04-19T15:51:50.517Z,8.17
2019-04-19T15:54:20.879Z,9.80
2019-04-19T15:56:52.129Z,8.60
2019-04-19T15:59:25.628Z,8.67
2019-04-19T16:01:55.927Z,15.67
2019-04-19T16:04:43.703Z,31.03
2019-04-19T16:07:20.212Z,6.57
2019-04-19T16:10:05.785Z,12.30
2019-04-19T16:12:35.690Z,7.90
2019-04-19T16:15:06.206Z,7.70
2019-04-19T16:17:34.917Z,8.80
2019-04-19T16:20:05.096Z,9.17
2019-04-19T16:22:34.113Z,10.10
2019-04-19T16:25:03.140Z,12.13
2019-04-19T16:27:31.724Z,6.60
2019-04-19T16:30:01.662Z,10.60
2019-04-19T16:32:30.834Z,9.00
2019-04-19T16:34:59.497Z,14.23
2019-04-19T16:37:28.660Z,15.53
2019-04-19T16:39:58.196Z,10.67
2019-04-19T16:42:27.162Z,10.07
2019-04-19T16:44:56.234Z,8.67
2019-04-19T16:47:24.879Z,7.33
2019-04-19T16:49:54.341Z,9.20
2019-04-19T16:52:22.984Z,12.00
2019-04-19T16:54:56.035Z,7.97
2019-04-19T16:57:29.361Z,7.73
2019-04-19T16:59:55.673Z,11.20
2019-04-19T17:02:24.915Z,6.90
2019-04-19T17:04:54.658Z,11.30
2019-04-19T17:07:24.694Z,7.30
2019-04-19T17:09:53.867Z,13.70
2019-04-19T17:12:22.536Z,14.13
2019-04-19T17:14:52.901Z,19.93
2019-04-19T17:17:26.709Z,13.57
2019-04-19T17:19:57.170Z,8.60
2019-04-19T17:22:39.251Z,9.10
2019-04-19T17:25:11.051Z,6.90
2019-04-19T17:27:41.022Z,8.50
2019-04-19T17:30:12.784Z,6.63
2019-04-19T17:32:42.044Z,8.60
2019-04-19T17:35:12.311Z,17.40
2019-04-19T17:37:42.222Z,12.63
2019-04-19T17:40:11.498Z,9.90
2019-04-19T17:42:40.531Z,5.97
2019-04-19T17:45:11.592Z,6.23
2019-04-19T17:47:42.147Z,10.90
2019-04-19T17:50:11.266Z,7.27
2019-04-19T17:52:39.907Z,10.73
2019-04-19T17:55:20.474Z,12.90
2019-04-19T17:57:39.470Z,9.40
2019-04-19T18:00:08.587Z,10.90
2019-04-19T18:02:37.250Z,14.10
2019-04-19T18:05:08.102Z,8.33
2019-04-19T18:07:40.978Z,9.40
2019-04-19T18:10:13.506Z,8.00
2019-04-19T18:12:39.178Z,8.47
2019-04-19T18:18:47.846Z,8.57
2019-04-19T18:21:34.587Z,20.63
2019-04-19T18:24:20.802Z,12.97
2019-04-19T18:27:08.409Z,14.03
2019-04-19T18:36:02.030Z,9.00
2019-04-19T18:38:26.573Z,10.10
2019-04-19T18:41:47.591Z,9.20
2019-04-19T18:47:23.212Z,5.97
2019-04-19T18:50:06.556Z,8.33
2019-04-19T18:52:48.723Z,6.90
2019-04-19T18:55:11.979Z,7.57
2019-04-19T18:57:42.970Z,7.93
2019-04-19T19:00:10.385Z,5.63
2019-04-19T19:02:39.046Z,6.17
2019-04-19T19:05:10.593Z,7.43
2019-04-19T19:07:38.880Z,7.53
2019-04-19T19:10:09.344Z,9.70
2019-04-19T19:12:40.271Z,5.63
2019-04-19T19:15:10.293Z,5.90
2019-04-19T19:17:43.743Z,8.17
2019-04-19T19:20:16.968Z,4.93
2019-04-19T19:22:58.817Z,6.63
2019-04-19T19:25:29.938Z,6.77
2019-04-19T19:27:48.387Z,8.13
2019-04-19T19:30:18.585Z,4.67
2019-04-19T19:32:51.188Z,6.30
2019-04-19T19:35:23.049Z,5.77
2019-04-19T19:37:48.644Z,8.33
2019-04-19T19:42:14.290Z,6.17
2019-04-19T19:43:07.481Z,8.27
2019-04-19T19:45:36.444Z,3.80
2019-04-19T19:48:10.452Z,5.90
2019-04-19T19:50:50.130Z,6.20
2019-04-19T19:53:16.506Z,5.30
2019-04-19T19:55:45.898Z,5.53
2019-04-19T19:58:00.624Z,7.50
2019-04-19T20:00:38.195Z,4.73
2019-04-19T20:03:06.950Z,3.97
2019-04-19T20:05:32.721Z,4.80
2019-04-19T20:07:57.491Z,10.63
2019-04-19T20:10:33.850Z,4.47
2019-04-19T20:13:00.881Z,3.97
2019-04-19T20:15:29.960Z,6.67
2019-04-19T20:17:58.564Z,4.80
2019-04-19T20:20:32.945Z,3.50
2019-04-19T20:22:58.348Z,3.37
2019-04-19T20:25:37.804Z,8.53
2019-04-19T20:27:59.357Z,6.83
2019-04-19T20:30:31.407Z,4.47
2019-04-19T20:33:02.140Z,5.40
2019-04-19T20:35:29.863Z,7.60
2019-04-19T20:38:01.275Z,6.37
2019-04-19T20:40:30.937Z,3.20
2019-04-19T20:43:21.171Z,6.90
2019-04-19T20:45:41.471Z,3.40
2019-04-19T20:48:08.010Z,4.27
2019-04-19T20:50:46.302Z,4.13
2019-04-19T20:53:13.728Z,4.60
2019-04-19T20:56:10.007Z,4.90
2019-04-19T20:58:24.025Z,4.87
2019-04-19T21:00:44.034Z,4.10
2019-04-19T21:03:15.694Z,3.03
2019-04-19T21:05:46.487Z,3.30
2019-04-19T21:08:15.929Z,7.90
2019-04-19T21:10:52.031Z,4.87
2019-04-19T21:13:17.756Z,9.27
2019-04-19T21:15:45.603Z,3.80
2019-04-19T21:18:20.688Z,3.03
2019-04-19T21:20:46.646Z,4.43
2019-04-19T21:23:21.730Z,3.20
2019-04-19T21:25:53.130Z,4.03
2019-04-19T21:28:16.756Z,3.50
2019-04-19T21:30:51.752Z,5.27
2019-04-19T21:33:18.650Z,4.07
2019-04-19T21:35:53.047Z,3.60
2019-04-19T21:38:22.667Z,4.40
2019-04-19T21:40:48.483Z,3.27
2019-04-19T21:43:23.378Z,6.60
2019-04-19T21:45:50.505Z,4.20
2019-04-19T21:48:24.776Z,2.80
2019-04-19T21:50:50.397Z,4.03
2019-04-19T21:53:18.793Z,3.73
2019-04-19T21:55:57.540Z,8.43
2019-04-19T21:58:21.107Z,3.63
2019-04-19T22:01:04.349Z,4.63
2019-04-19T22:03:30.721Z,3.17
2019-04-19T22:06:02.822Z,4.30
2019-04-19T22:08:34.753Z,5.13
2019-04-19T22:11:00.921Z,6.73
2019-04-19T22:13:36.535Z,5.90
2019-04-19T22:16:01.956Z,4.93
2019-04-19T22:18:32.250Z,5.83
2019-04-19T22:21:03.772Z,4.33
2019-04-19T22:23:31.018Z,4.57
2019-04-19T22:26:13.217Z,4.30
2019-04-19T22:28:30.005Z,9.20
2019-04-19T22:31:00.230Z,4.63
2019-04-19T22:33:30.333Z,6.00
2019-04-19T22:36:02.402Z,5.00
2019-04-19T22:38:29.648Z,5.20
2019-04-19T22:41:05.448Z,11.53
2019-04-19T22:43:28.926Z,4.63
2019-04-19T22:46:04.781Z,4.50
2019-04-19T22:48:29.318Z,7.67
2019-04-19T22:51:03.936Z,6.20
2019-04-19T22:53:34.069Z,5.70
2019-04-19T22:56:08.090Z,6.00
2019-04-19T22:58:32.107Z,5.00
2019-04-19T23:01:00.945Z,4.60
2019-04-19T23:03:35.414Z,6.43
2019-04-19T23:06:03.588Z,5.33
2019-04-19T23:08:36.708Z,5.80
2019-04-19T23:11:05.841Z,6.80
2019-04-19T23:13:33.973Z,3.97
2019-04-19T23:16:07.810Z,4.70
2019-04-19T23:18:35.780Z,3.90
2019-04-19T23:21:12.457Z,3.90
2019-04-19T23:23:36.431Z,4.33
2019-04-19T23:26:19.869Z,7.50
2019-04-19T23:28:39.252Z,3.53
2019-04-19T23:31:11.093Z,4.63
2019-04-19T23:33:36.500Z,5.60
2019-04-19T23:36:11.571Z,3.60
2019-04-19T23:38:37.122Z,4.73
2019-04-19T23:41:06.964Z,5.70
2019-04-19T23:43:38.982Z,7.53
2019-04-19T23:46:09.468Z,8.67
2019-04-19T23:48:37.325Z,7.00
2019-04-19T23:51:06.527Z,9.27
2019-04-19T23:53:39.573Z,5.73
2019-04-19T23:56:19.122Z,5.17
2019-04-19T23:58:39.600Z,5.33
